createdAt,value
2022-11-23T00:01:37.502Z,8.76
2022-11-23T00:04:06.966Z,8.81
2022-11-23T00:06:35.100Z,8.93
2022-11-23T00:09:01.803Z,8.98
2022-11-23T00:11:28.707Z,9.01
2022-11-23T00:13:55.837Z,9.12
2022-11-23T00:16:27.973Z,9.16
2022-11-23T00:18:59.602Z,9.32
2022-11-23T00:21:28.308Z,9.37
2022-11-23T00:23:54.803Z,9.41
2022-11-23T00:26:21.555Z,9.39
2022-11-23T00:28:48.955Z,9.36
2022-11-23T00:31:17.641Z,9.43
2022-11-23T00:33:57.573Z,9.43
2022-11-23T00:36:26.160Z,9.40
2022-11-23T00:38:54.662Z,9.44
2022-11-23T00:41:24.055Z,9.48
2022-11-23T00:43:50.673Z,9.46
2022-11-23T00:46:21.203Z,9.50
2022-11-23T00:48:49.471Z,9.50
2022-11-23T00:51:19.179Z,9.46
2022-11-23T00:53:46.140Z,9.53
2022-11-23T00:56:13.165Z,9.50
2022-11-23T01:01:43.727Z,9.44
2022-11-23T01:04:10.211Z,9.48
2022-11-23T01:06:39.336Z,9.46
2022-11-23T01:09:13.878Z,9.46
2022-11-23T01:11:40.694Z,9.46
2022-11-23T01:14:07.632Z,9.43
2022-11-23T01:16:39.715Z,9.47
2022-11-23T01:19:08.722Z,9.50
2022-11-23T01:21:35.791Z,9.50
2022-11-23T01:24:07.625Z,9.53
2022-11-23T01:26:34.544Z,9.47
2022-11-23T01:29:01.198Z,9.54
2022-11-23T01:31:27.875Z,9.50
2022-11-23T01:33:59.919Z,9.53
2022-11-23T01:36:29.359Z,9.51
2022-11-23T01:38:56.396Z,9.50
2022-11-23T01:41:31.829Z,9.53
2022-11-23T01:43:58.550Z,9.53
2022-11-23T01:46:25.203Z,9.51
2022-11-23T01:48:54.611Z,9.50
2022-11-23T01:51:26.160Z,9.51
2022-11-23T01:53:54.896Z,9.55
2022-11-23T01:56:28.600Z,9.50
2022-11-23T01:58:58.365Z,9.48
2022-11-23T02:01:24.967Z,9.50
2022-11-23T02:03:53.590Z,9.47
2022-11-23T02:06:23.049Z,9.43
2022-11-23T02:08:50.907Z,9.41
2022-11-23T02:11:17.896Z,9.37
2022-11-23T02:13:45.956Z,9.34
2022-11-23T02:16:14.644Z,9.33
2022-11-23T02:18:44.105Z,9.27
2022-11-23T02:21:10.767Z,9.30
2022-11-23T02:24:05.999Z,9.20
2022-11-23T02:26:35.775Z,9.24
2022-11-23T02:29:22.487Z,9.23
2022-11-23T02:31:49.455Z,9.26
2022-11-23T02:34:17.538Z,9.26
2022-11-23T02:36:50.633Z,9.26
2022-11-23T02:39:31.669Z,9.32
2022-11-23T02:41:58.902Z,9.22
2022-11-23T02:44:34.497Z,9.24
2022-11-23T02:47:01.424Z,9.24
2022-11-23T02:49:28.633Z,9.23
2022-11-23T02:51:55.460Z,9.26
2022-11-23T02:54:21.963Z,9.29
2022-11-23T02:56:48.486Z,9.32
2022-11-23T02:59:15.117Z,9.41
2022-11-23T03:01:41.608Z,9.50
2022-11-23T03:04:08.563Z,9.47
2022-11-23T03:06:35.258Z,9.46
2022-11-23T03:09:01.823Z,9.41
2022-11-23T03:11:28.293Z,9.37
2022-11-23T03:13:55.034Z,9.29
2022-11-23T03:16:21.848Z,9.27
2022-11-23T03:18:48.290Z,9.20
2022-11-23T03:21:14.793Z,9.19
2022-11-23T03:23:41.343Z,9.20
2022-11-23T03:26:12.680Z,9.20
2022-11-23T03:28:39.728Z,9.16
2022-11-23T03:31:06.236Z,9.15
2022-11-23T03:33:32.836Z,9.15
2022-11-23T03:35:59.426Z,9.09
2022-11-23T03:38:25.985Z,9.16
2022-11-23T03:40:52.554Z,9.05
2022-11-23T03:43:19.718Z,9.01
2022-11-23T03:45:46.175Z,9.01
2022-11-23T03:48:12.768Z,9.02
2022-11-23T03:50:39.282Z,8.99
2022-11-23T03:53:06.266Z,9.03
2022-11-23T03:55:33.993Z,9.12
2022-11-23T03:58:00.857Z,9.15
2022-11-23T04:00:29.276Z,9.16
2022-11-23T04:02:56.251Z,9.22
2022-11-23T04:05:22.944Z,9.20
2022-11-23T04:07:49.914Z,9.13
2022-11-23T04:10:18.068Z,9.11
2022-11-23T04:12:44.751Z,9.13
2022-11-23T04:15:11.882Z,9.11
2022-11-23T04:17:38.773Z,9.13
2022-11-23T04:20:06.059Z,9.15
2022-11-23T04:22:32.528Z,9.13
2022-11-23T04:24:59.335Z,9.13
2022-11-23T04:27:25.824Z,9.15
2022-11-23T04:29:52.316Z,9.13
2022-11-23T04:32:18.796Z,9.11
2022-11-23T04:34:45.351Z,9.13
2022-11-23T04:37:13.625Z,9.18
2022-11-23T04:39:40.392Z,9.16
2022-11-23T04:42:06.985Z,9.19
2022-11-23T04:44:33.475Z,9.18
2022-11-23T04:47:00.012Z,9.18
2022-11-23T04:49:26.704Z,9.19
2022-11-23T04:51:53.213Z,9.16
2022-11-23T04:54:19.810Z,9.23
2022-11-23T04:56:46.315Z,9.22
2022-11-23T04:59:13.006Z,9.19
2022-11-23T05:01:39.666Z,9.23
2022-11-23T05:04:06.241Z,9.19
2022-11-23T05:06:32.755Z,9.03
2022-11-23T05:08:59.298Z,8.88
2022-11-23T05:11:27.104Z,8.83
2022-11-23T05:13:53.784Z,8.78
2022-11-23T05:16:20.372Z,8.79
2022-11-23T05:18:46.886Z,8.83
2022-11-23T05:21:13.564Z,8.81
2022-11-23T05:23:40.117Z,8.81
2022-11-23T05:26:06.934Z,8.74
2022-11-23T05:28:40.601Z,8.76
2022-11-23T05:31:08.267Z,8.76
2022-11-23T05:33:38.132Z,8.82
2022-11-23T05:36:04.944Z,8.81
2022-11-23T05:38:31.497Z,8.75
2022-11-23T05:40:58.069Z,8.74
2022-11-23T05:43:24.539Z,8.62
2022-11-23T05:45:50.982Z,8.60
2022-11-23T05:48:18.009Z,8.53
2022-11-23T05:50:45.591Z,8.54
2022-11-23T05:53:12.063Z,8.51
2022-11-23T05:55:38.535Z,8.50
2022-11-23T05:58:05.024Z,8.57
2022-11-23T06:00:31.557Z,8.55
2022-11-23T06:03:02.517Z,8.58
2022-11-23T06:05:29.815Z,8.62
2022-11-23T06:07:56.689Z,8.65
2022-11-23T06:10:23.820Z,8.72
2022-11-23T06:12:50.290Z,8.72
2022-11-23T06:15:16.958Z,8.79
2022-11-23T06:17:43.547Z,8.78
2022-11-23T06:20:11.628Z,8.76
2022-11-23T06:22:38.184Z,8.79
2022-11-23T06:25:04.881Z,8.78
2022-11-23T06:27:31.542Z,8.83
2022-11-23T06:29:58.024Z,8.81
2022-11-23T06:32:24.585Z,8.79
2022-11-23T06:34:51.047Z,8.81
2022-11-23T06:37:17.572Z,8.79
2022-11-23T06:39:44.124Z,8.78
2022-11-23T06:42:37.365Z,8.82
2022-11-23T06:44:57.063Z,8.83
2022-11-23T06:47:26.530Z,8.79
2022-11-23T06:49:56.505Z,8.83
2022-11-23T06:52:22.995Z,8.82
2022-11-23T06:54:49.500Z,8.82
2022-11-23T06:57:16.248Z,8.81
2022-11-23T06:59:44.944Z,8.81
2022-11-23T07:02:12.519Z,8.83
2022-11-23T07:04:39.232Z,8.81
2022-11-23T07:07:07.963Z,8.79
2022-11-23T07:09:35.171Z,8.81
2022-11-23T07:12:01.935Z,8.83
2022-11-23T07:14:28.419Z,8.85
2022-11-23T07:16:54.876Z,8.86
2022-11-23T07:19:22.001Z,8.85
2022-11-23T07:21:48.446Z,8.89
2022-11-23T07:24:14.892Z,8.93
2022-11-23T07:26:41.361Z,8.95
2022-11-23T07:33:40.252Z,8.95
2022-11-23T07:36:07.475Z,8.95
2022-11-23T07:38:33.931Z,9.12
2022-11-23T07:41:01.786Z,9.39
2022-11-23T07:43:28.194Z,9.53
2022-11-23T07:45:57.520Z,9.63
2022-11-23T07:48:24.718Z,9.80
2022-11-23T07:50:55.064Z,9.74
2022-11-23T07:53:21.700Z,9.60
2022-11-23T07:55:48.148Z,9.41
2022-11-23T07:58:14.954Z,9.23
2022-11-23T08:00:41.521Z,9.16
2022-11-23T08:03:27.280Z,9.01
2022-11-23T08:05:54.121Z,8.98
2022-11-23T08:08:20.890Z,9.08
2022-11-23T08:10:53.016Z,9.41
2022-11-23T08:13:21.245Z,9.81
2022-11-23T08:15:53.883Z,10.05
2022-11-23T08:18:21.447Z,10.23
2022-11-23T08:20:47.918Z,10.49
2022-11-23T08:23:14.363Z,10.61
2022-11-23T08:25:40.964Z,10.70
2022-11-23T08:28:07.471Z,11.00
2022-11-23T08:30:34.974Z,10.94
2022-11-23T08:33:06.009Z,11.01
2022-11-23T08:35:39.795Z,11.00
2022-11-23T08:38:07.937Z,11.00
2022-11-23T08:40:35.043Z,11.25
2022-11-23T08:43:01.952Z,11.58
2022-11-23T08:45:28.893Z,11.45
2022-11-23T08:47:59.952Z,11.76
2022-11-23T08:50:26.597Z,11.66
2022-11-23T08:52:57.246Z,11.55
2022-11-23T08:55:25.174Z,11.59
2022-11-23T08:57:54.685Z,11.39
2022-11-23T09:00:21.283Z,11.94
2022-11-23T09:02:47.825Z,12.04
2022-11-23T09:05:14.415Z,11.75
2022-11-23T09:07:42.079Z,11.90
2022-11-23T09:10:11.490Z,11.93
2022-11-23T09:12:40.234Z,12.24
2022-11-23T09:15:07.334Z,12.24
2022-11-23T09:17:33.892Z,12.41
2022-11-23T09:20:00.352Z,12.10
2022-11-23T09:22:27.604Z,12.32
2022-11-23T09:24:54.330Z,12.22
2022-11-23T09:27:22.275Z,11.82
2022-11-23T09:29:48.692Z,11.06
2022-11-23T09:32:15.213Z,10.64
2022-11-23T09:34:42.319Z,10.42
2022-11-23T09:39:49.477Z,10.19
2022-11-23T09:42:40.834Z,10.19
2022-11-23T09:45:12.203Z,10.18
2022-11-23T09:48:05.185Z,10.13
2022-11-23T09:50:45.769Z,10.08
2022-11-23T09:53:24.993Z,10.34
2022-11-23T09:55:54.094Z,10.48
2022-11-23T09:58:22.289Z,10.66
2022-11-23T10:00:56.102Z,10.43
2022-11-23T10:03:22.560Z,10.38
2022-11-23T10:06:01.990Z,10.19
2022-11-23T10:08:53.842Z,10.11
2022-11-23T10:11:38.626Z,10.12
2022-11-23T10:14:19.415Z,10.16
2022-11-23T10:17:09.201Z,10.11
2022-11-23T10:20:21.670Z,10.08
2022-11-23T10:23:18.624Z,10.02
2022-11-23T10:25:49.997Z,9.97
2022-11-23T10:28:20.456Z,10.01
2022-11-23T10:31:15.054Z,9.99
2022-11-23T10:34:13.164Z,9.99
2022-11-23T10:36:40.827Z,9.95
2022-11-23T10:39:24.903Z,9.97
2022-11-23T10:41:52.780Z,10.06
2022-11-23T10:44:19.162Z,10.11
2022-11-23T10:46:45.687Z,10.25
2022-11-23T10:49:29.736Z,10.28
2022-11-23T10:52:27.850Z,10.85
2022-11-23T10:54:56.074Z,11.90
2022-11-23T10:57:32.634Z,12.35
2022-11-23T11:00:08.099Z,12.57
2022-11-23T11:02:45.327Z,12.54
2022-11-23T11:05:46.451Z,13.07
2022-11-23T11:08:16.974Z,12.80
2022-11-23T11:10:50.212Z,13.10
2022-11-23T11:13:23.464Z,13.09
2022-11-23T11:15:54.624Z,13.79
2022-11-23T11:18:21.261Z,13.88
2022-11-23T11:20:47.707Z,14.15
2022-11-23T11:23:21.407Z,13.92
2022-11-23T11:25:50.103Z,13.64
2022-11-23T11:28:22.553Z,12.83
2022-11-23T11:31:09.495Z,12.52
2022-11-23T11:34:11.530Z,12.07
2022-11-23T11:36:45.095Z,11.75
2022-11-23T11:39:19.141Z,11.41
2022-11-23T11:41:49.037Z,11.10
2022-11-23T11:44:35.196Z,10.95
2022-11-23T11:47:13.426Z,10.87
2022-11-23T11:49:46.286Z,10.80
2022-11-23T11:52:22.197Z,10.88
2022-11-23T11:55:01.740Z,10.81
2022-11-23T11:57:37.139Z,10.69
2022-11-23T12:00:12.983Z,10.63
2022-11-23T12:03:14.696Z,10.59
2022-11-23T12:05:51.129Z,10.66
2022-11-23T12:08:34.384Z,11.17
2022-11-23T12:11:06.317Z,10.90
2022-11-23T12:13:36.346Z,10.74
2022-11-23T12:16:41.824Z,10.80
2022-11-23T12:19:23.733Z,10.69
2022-11-23T12:22:14.913Z,10.63
2022-11-23T12:25:07.821Z,10.79
2022-11-23T12:27:48.349Z,11.41
2022-11-23T12:30:49.931Z,11.24
2022-11-23T12:33:47.934Z,11.55
2022-11-23T12:36:23.595Z,11.53
2022-11-23T12:39:04.468Z,11.12
2022-11-23T12:42:00.550Z,10.88
2022-11-23T12:44:36.349Z,10.79
2022-11-23T12:47:21.754Z,10.74
2022-11-23T12:49:58.639Z,10.73
2022-11-23T12:52:50.947Z,10.84
2022-11-23T12:55:24.899Z,11.75
2022-11-23T12:58:01.597Z,11.66
2022-11-23T13:00:36.330Z,11.32
2022-11-23T13:03:18.218Z,11.12
2022-11-23T13:06:03.814Z,11.11
2022-11-23T13:09:04.158Z,11.48
2022-11-23T13:11:40.569Z,12.13
2022-11-23T13:14:30.146Z,11.91
2022-11-23T13:17:03.159Z,12.03
2022-11-23T13:19:42.277Z,12.25
2022-11-23T13:22:15.686Z,12.17
2022-11-23T13:24:59.177Z,12.69
2022-11-23T13:27:31.422Z,13.19
2022-11-23T13:30:01.236Z,13.12
2022-11-23T13:32:40.037Z,12.62
2022-11-23T13:35:22.018Z,12.57
2022-11-23T13:37:54.393Z,11.90
2022-11-23T13:40:26.751Z,12.11
2022-11-23T13:42:56.662Z,11.83
2022-11-23T13:45:29.060Z,11.97
2022-11-23T13:48:19.483Z,11.73
2022-11-23T13:50:59.922Z,11.52
2022-11-23T13:53:34.564Z,11.27
2022-11-23T13:56:28.056Z,11.15
2022-11-23T13:59:25.297Z,11.17
2022-11-23T14:02:07.697Z,11.35
2022-11-23T14:04:41.337Z,11.48
2022-11-23T14:07:15.275Z,11.50
2022-11-23T14:10:04.064Z,11.62
2022-11-23T14:12:39.155Z,11.34
2022-11-23T14:15:19.935Z,11.18
2022-11-23T14:17:52.701Z,11.01
2022-11-23T14:20:25.318Z,11.00
2022-11-23T14:23:20.031Z,10.80
2022-11-23T14:26:20.899Z,10.70
2022-11-23T14:29:00.761Z,10.64
2022-11-23T14:31:45.758Z,10.60
2022-11-23T14:34:26.250Z,10.56
2022-11-23T14:36:57.140Z,10.53
2022-11-23T14:39:52.744Z,10.45
2022-11-23T14:42:23.005Z,10.39
2022-11-23T14:44:51.026Z,10.38
2022-11-23T14:47:30.075Z,10.39
2022-11-23T14:49:57.031Z,10.34
2022-11-23T14:52:31.289Z,10.25
2022-11-23T14:55:01.353Z,10.25
2022-11-23T14:57:38.518Z,10.18
2022-11-23T15:00:11.453Z,10.19
2022-11-23T15:02:41.187Z,10.23
2022-11-23T15:05:19.207Z,10.19
2022-11-23T15:07:53.126Z,10.21
2022-11-23T15:10:25.873Z,10.12
2022-11-23T15:12:52.371Z,10.16
2022-11-23T15:15:22.342Z,10.12
2022-11-23T15:17:59.526Z,10.12
2022-11-23T15:20:34.154Z,9.94
2022-11-23T15:23:05.202Z,9.55
2022-11-23T15:25:31.871Z,9.30
2022-11-23T15:27:58.434Z,9.05
2022-11-23T15:30:29.866Z,9.01
2022-11-23T15:33:00.681Z,8.98
2022-11-23T15:35:35.478Z,8.79
2022-11-23T15:38:04.261Z,8.71
2022-11-23T15:40:34.136Z,8.61
2022-11-23T15:43:00.783Z,8.61
2022-11-23T15:56:59.383Z,8.27
2022-11-23T15:59:35.140Z,8.29
2022-11-23T16:10:20.387Z,8.04
2022-11-23T16:13:06.208Z,8.04
2022-11-23T16:15:44.239Z,7.99
2022-11-23T16:18:13.868Z,7.96
2022-11-23T16:20:45.428Z,7.96
2022-11-23T16:23:19.139Z,7.92
2022-11-23T16:25:53.140Z,7.89
2022-11-23T16:28:27.870Z,7.89
2022-11-23T16:30:54.494Z,7.87
2022-11-23T16:33:21.332Z,7.90
2022-11-23T16:35:48.327Z,7.87
2022-11-23T16:38:14.900Z,7.85
2022-11-23T16:40:42.391Z,7.85
2022-11-23T16:43:12.583Z,7.82
2022-11-23T16:45:42.280Z,7.75
2022-11-23T16:51:22.656Z,7.72
2022-11-23T16:56:36.412Z,7.66
2022-11-23T16:59:03.006Z,7.68
2022-11-23T17:01:31.762Z,7.66
2022-11-23T17:03:58.310Z,7.71
2022-11-23T17:06:25.092Z,7.69
2022-11-23T17:09:00.543Z,7.61
2022-11-23T17:11:34.266Z,7.62
2022-11-23T17:14:00.668Z,7.65
2022-11-23T17:16:27.464Z,7.65
2022-11-23T17:18:53.981Z,7.66
2022-11-23T17:21:20.596Z,7.68
2022-11-23T17:23:47.253Z,7.69
2022-11-23T17:26:33.081Z,7.71
2022-11-23T17:29:02.284Z,7.72
2022-11-23T17:31:28.907Z,7.73
2022-11-23T17:33:55.570Z,7.75
2022-11-23T17:36:22.156Z,7.73
2022-11-23T17:38:49.550Z,7.75
2022-11-23T17:41:16.286Z,7.69
2022-11-23T17:43:42.800Z,7.71
2022-11-23T17:46:21.525Z,7.69
2022-11-23T17:48:53.924Z,7.72
2022-11-23T17:54:01.988Z,7.68
2022-11-23T17:56:28.472Z,7.69
2022-11-23T18:01:35.790Z,7.66
2022-11-23T18:06:45.092Z,7.71
2022-11-23T18:09:12.648Z,7.75
2022-11-23T18:11:39.216Z,7.75
2022-11-23T18:14:05.852Z,7.76
2022-11-23T18:16:32.335Z,7.73
2022-11-23T18:21:39.138Z,7.73
2022-11-23T18:24:05.893Z,7.68
2022-11-23T18:26:32.745Z,7.71
2022-11-23T18:28:59.218Z,7.73
2022-11-23T18:31:26.231Z,7.73
2022-11-23T18:33:52.911Z,7.76
2022-11-23T18:36:19.879Z,7.73
2022-11-23T18:38:47.654Z,7.85
2022-11-23T18:41:16.477Z,7.89
2022-11-23T18:43:46.316Z,7.87
2022-11-23T18:46:20.780Z,8.00
2022-11-23T18:48:49.569Z,8.10
2022-11-23T18:51:17.398Z,7.99
2022-11-23T18:53:47.414Z,7.93
2022-11-23T18:58:42.081Z,7.83
2022-11-23T19:01:12.137Z,7.86
2022-11-23T19:03:40.857Z,7.82
2022-11-23T19:06:08.839Z,7.82
2022-11-23T19:08:39.013Z,7.85
2022-11-23T19:11:07.877Z,7.79
2022-11-23T19:13:38.570Z,7.71
2022-11-23T19:16:10.500Z,7.68
2022-11-23T19:18:38.105Z,7.69
2022-11-23T19:21:19.461Z,7.66
2022-11-23T19:23:50.918Z,7.65
2022-11-23T19:26:18.631Z,7.69
2022-11-23T19:28:45.721Z,7.65
2022-11-23T19:31:21.194Z,7.66
2022-11-23T19:33:49.134Z,7.65
2022-11-23T19:36:16.796Z,7.64
2022-11-23T19:38:43.487Z,7.58
2022-11-23T19:41:10.515Z,7.51
2022-11-23T19:43:37.376Z,7.47
2022-11-23T19:46:05.593Z,7.42
2022-11-23T19:48:33.900Z,7.38
2022-11-23T19:51:03.875Z,7.28
2022-11-23T19:53:32.931Z,7.27
2022-11-23T19:56:04.648Z,7.21
2022-11-23T19:58:32.508Z,7.18
2022-11-23T20:01:04.856Z,7.13
2022-11-23T20:03:34.193Z,7.11
2022-11-23T20:06:04.175Z,7.07
2022-11-23T20:08:30.750Z,7.08
2022-11-23T20:10:57.717Z,7.01
2022-11-23T20:13:24.438Z,7.00
2022-11-23T20:15:50.948Z,6.92
2022-11-23T20:18:19.079Z,6.89
2022-11-23T20:20:47.305Z,6.87
2022-11-23T20:23:17.099Z,6.76
2022-11-23T20:25:43.652Z,6.82
2022-11-23T20:28:22.951Z,6.75
2022-11-23T20:30:50.877Z,6.69
2022-11-23T20:33:19.397Z,6.66
2022-11-23T20:35:47.503Z,6.63
2022-11-23T20:38:17.289Z,6.68
2022-11-23T20:40:43.940Z,6.61
2022-11-23T20:43:10.492Z,6.61
2022-11-23T20:45:37.023Z,6.59
2022-11-23T20:48:03.808Z,6.50
2022-11-23T20:50:30.417Z,6.52
2022-11-23T20:53:03.723Z,6.49
2022-11-23T20:55:32.178Z,6.53
2022-11-23T20:57:58.995Z,6.48
2022-11-23T21:00:25.605Z,6.45
2022-11-23T21:02:53.500Z,6.45
2022-11-23T21:05:20.432Z,6.42
2022-11-23T21:07:48.005Z,6.39
2022-11-23T21:10:35.232Z,6.34
2022-11-23T21:13:20.923Z,6.25
2022-11-23T21:15:47.598Z,6.24
2022-11-23T21:18:14.614Z,6.17
2022-11-23T21:20:43.290Z,6.21
2022-11-23T21:23:09.972Z,6.18
2022-11-23T21:25:36.632Z,6.17
2022-11-23T21:28:03.421Z,6.10
2022-11-23T21:30:30.952Z,6.05
2022-11-23T21:32:57.568Z,6.07
2022-11-23T21:35:24.262Z,6.03
2022-11-23T21:37:51.268Z,6.01
2022-11-23T21:40:17.874Z,6.08
2022-11-23T21:42:44.836Z,6.05
2022-11-23T21:45:11.592Z,6.03
2022-11-23T21:47:38.065Z,6.04
2022-11-23T21:50:05.124Z,6.01
2022-11-23T21:52:31.640Z,6.00
2022-11-23T21:54:58.064Z,5.97
2022-11-23T21:57:24.527Z,6.03
2022-11-23T21:59:51.006Z,5.91
2022-11-23T22:02:20.271Z,5.91
2022-11-23T22:04:46.971Z,5.97
2022-11-23T22:07:13.498Z,6.04
2022-11-23T22:09:39.960Z,6.07
2022-11-23T22:12:14.060Z,6.13
2022-11-23T22:20:21.807Z,6.07
2022-11-23T22:25:34.852Z,6.04
2022-11-23T22:28:03.416Z,6.05
2022-11-23T22:30:55.240Z,6.10
2022-11-23T22:36:46.897Z,6.13
2022-11-23T22:39:31.724Z,6.11
2022-11-23T22:42:10.959Z,6.13
2022-11-23T22:44:40.247Z,6.10
2022-11-23T22:50:04.929Z,5.94
2022-11-23T22:52:36.253Z,5.84
2022-11-23T23:34:46.830Z,6.15
2022-11-23T23:37:37.275Z,6.21
2022-11-23T23:51:38.808Z,6.17
